createdAt,value
2022-12-31T00:01:43.626Z,99809.20
2022-12-31T00:06:53.270Z,99795.60
2022-12-31T00:12:03.013Z,99779.40
2022-12-31T00:17:12.798Z,99760.80
2022-12-31T00:22:22.499Z,99751.80
2022-12-31T00:27:35.418Z,99744.00
2022-12-31T00:32:45.062Z,99760.20
2022-12-31T00:37:56.388Z,99762.80
2022-12-31T00:43:06.001Z,99743.00
2022-12-31T00:48:16.259Z,99725.00
2022-12-31T00:53:26.994Z,99724.40
2022-12-31T00:58:36.654Z,99715.00
2022-12-31T01:03:46.953Z,99706.60
2022-12-31T01:08:57.712Z,99701.00
2022-12-31T01:14:12.291Z,99732.80
2022-12-31T01:19:25.307Z,99704.60
2022-12-31T01:24:34.993Z,99696.00
2022-12-31T01:29:44.622Z,99688.40
2022-12-31T01:34:54.241Z,99691.20
2022-12-31T01:40:04.159Z,99695.00
2022-12-31T01:45:18.089Z,99681.80
2022-12-31T01:50:33.312Z,99659.80
2022-12-31T01:55:48.986Z,99670.00
2022-12-31T02:01:01.073Z,99671.80
2022-12-31T02:06:19.955Z,99675.20
2022-12-31T02:11:35.603Z,99662.40
2022-12-31T02:16:56.585Z,99684.20
2022-12-31T02:22:19.290Z,99693.40
2022-12-31T02:27:47.138Z,99679.60
2022-12-31T02:33:30.577Z,99677.40
2022-12-31T02:38:46.398Z,99682.40
2022-12-31T02:43:56.470Z,99675.80
2022-12-31T02:49:17.860Z,99662.20
2022-12-31T02:54:43.327Z,99671.60
2022-12-31T03:00:16.829Z,99665.80
2022-12-31T03:05:31.060Z,99670.00
2022-12-31T03:10:40.999Z,99655.20
2022-12-31T03:15:51.125Z,99659.60
2022-12-31T03:21:18.639Z,99647.00
2022-12-31T03:26:28.227Z,99633.20
2022-12-31T03:31:37.992Z,99646.20
2022-12-31T03:36:47.610Z,99650.80
2022-12-31T03:41:57.407Z,99653.00
2022-12-31T03:47:07.247Z,99650.20
2022-12-31T03:52:17.192Z,99635.80
2022-12-31T03:57:27.542Z,99636.40
2022-12-31T04:02:37.465Z,99645.40
2022-12-31T04:07:48.123Z,99640.60
2022-12-31T04:13:00.516Z,99638.40
2022-12-31T04:18:10.545Z,99647.40
2022-12-31T04:23:20.407Z,99641.80
2022-12-31T04:28:30.177Z,99631.20
2022-12-31T04:33:39.894Z,99624.80
2022-12-31T04:38:49.571Z,99637.40
2022-12-31T04:44:01.802Z,99634.00
2022-12-31T04:49:12.205Z,99648.60
2022-12-31T04:54:22.151Z,99644.20
2022-12-31T04:59:32.572Z,99646.20
2022-12-31T05:04:42.792Z,99635.00
2022-12-31T05:09:53.041Z,99626.00
2022-12-31T05:15:02.762Z,99630.80
2022-12-31T05:20:13.740Z,99632.00
2022-12-31T05:25:23.419Z,99639.60
2022-12-31T05:30:33.320Z,99648.40
2022-12-31T05:35:43.402Z,99655.40
2022-12-31T05:41:00.261Z,99648.40
2022-12-31T05:46:10.690Z,99644.20
2022-12-31T05:51:20.597Z,99653.40
2022-12-31T05:56:30.267Z,99653.60
2022-12-31T06:01:40.410Z,99654.00
2022-12-31T06:06:49.983Z,99650.20
2022-12-31T06:12:00.224Z,99652.00
2022-12-31T06:17:09.835Z,99663.80
2022-12-31T06:22:19.538Z,99664.20
2022-12-31T06:27:29.236Z,99645.80
2022-12-31T06:32:39.657Z,99653.80
2022-12-31T06:37:50.868Z,99648.80
2022-12-31T06:43:00.678Z,99661.00
2022-12-31T06:48:11.254Z,99660.40
2022-12-31T06:53:20.899Z,99683.60
2022-12-31T06:58:32.099Z,99675.80
2022-12-31T07:03:53.334Z,99681.20
2022-12-31T07:09:13.347Z,99692.20
2022-12-31T07:14:37.737Z,99706.00
2022-12-31T07:20:02.159Z,99702.40
2022-12-31T07:25:17.175Z,99703.80
2022-12-31T07:30:37.256Z,99711.20
2022-12-31T07:35:58.622Z,99712.00
2022-12-31T07:41:18.650Z,99715.20
2022-12-31T07:46:41.597Z,99719.60
2022-12-31T07:51:53.462Z,99736.80
2022-12-31T07:57:03.446Z,99740.80
2022-12-31T08:02:27.463Z,99742.20
2022-12-31T08:07:48.684Z,99738.60
2022-12-31T08:13:06.121Z,99737.20
2022-12-31T08:18:17.987Z,99757.80
2022-12-31T08:23:38.742Z,99747.00
2022-12-31T08:29:17.475Z,99742.60
2022-12-31T08:34:40.846Z,99751.60
2022-12-31T08:40:09.491Z,99764.80
2022-12-31T08:45:27.977Z,99773.00
2022-12-31T08:50:39.191Z,99779.00
2022-12-31T08:55:53.097Z,99785.00
2022-12-31T09:01:05.542Z,99785.80
2022-12-31T09:06:27.605Z,99786.40
2022-12-31T09:11:56.516Z,99768.60
2022-12-31T09:17:26.737Z,99780.40
2022-12-31T09:22:38.401Z,99770.00
2022-12-31T09:27:59.984Z,99768.40
2022-12-31T09:33:18.536Z,99763.00
2022-12-31T09:38:39.162Z,99771.40
2022-12-31T09:44:48.996Z,99757.20
2022-12-31T09:50:39.144Z,99742.20
2022-12-31T09:55:54.736Z,99737.80
2022-12-31T10:01:22.503Z,99743.60
2022-12-31T10:06:48.231Z,99725.00
2022-12-31T10:12:37.029Z,99733.00
2022-12-31T10:18:08.170Z,99705.80
2022-12-31T10:23:40.497Z,99703.80
2022-12-31T10:29:01.517Z,99686.80
2022-12-31T10:34:32.889Z,99673.20
2022-12-31T10:40:03.865Z,99671.40
2022-12-31T10:46:05.497Z,99670.40
2022-12-31T10:52:04.339Z,99662.20
2022-12-31T10:58:12.636Z,99658.00
2022-12-31T11:04:15.515Z,99656.60
2022-12-31T11:10:14.408Z,99655.20
2022-12-31T11:15:54.515Z,99632.80
2022-12-31T11:21:37.891Z,99625.00
2022-12-31T11:27:19.621Z,99618.20
2022-12-31T11:32:53.782Z,99595.20
2022-12-31T11:38:22.999Z,99590.20
2022-12-31T11:43:43.071Z,99580.60
2022-12-31T11:49:13.771Z,99569.00
2022-12-31T11:54:54.351Z,99572.40
2022-12-31T12:00:08.984Z,99569.00
2022-12-31T12:05:23.501Z,99565.40
2022-12-31T12:10:43.753Z,99547.60
2022-12-31T12:15:57.123Z,99537.00
2022-12-31T12:21:15.172Z,99535.40
2022-12-31T12:26:40.119Z,99553.80
2022-12-31T12:32:01.196Z,99541.40
2022-12-31T12:37:29.654Z,99532.20
2022-12-31T12:42:47.689Z,99520.00
2022-12-31T12:48:04.107Z,99531.60
2022-12-31T12:53:35.493Z,99524.60
2022-12-31T12:59:02.344Z,99513.60
2022-12-31T13:05:05.269Z,99509.40
2022-12-31T13:10:35.543Z,99494.20
2022-12-31T13:15:52.570Z,99493.40
2022-12-31T13:21:21.568Z,99498.80
2022-12-31T13:26:37.533Z,99499.40
2022-12-31T13:31:50.405Z,99488.20
2022-12-31T13:37:08.557Z,99484.40
2022-12-31T13:42:31.431Z,99502.20
2022-12-31T13:47:47.879Z,99530.40
2022-12-31T13:53:04.887Z,99533.00
2022-12-31T13:58:24.982Z,99520.80
2022-12-31T14:03:47.947Z,99534.40
2022-12-31T14:08:58.691Z,99546.00
2022-12-31T14:14:25.692Z,99549.40
2022-12-31T14:20:03.672Z,99540.60
2022-12-31T14:25:25.576Z,99533.00
2022-12-31T14:30:41.916Z,99543.60
2022-12-31T14:36:12.936Z,99550.60
2022-12-31T14:41:45.865Z,99568.80
2022-12-31T14:47:16.707Z,99547.80
2022-12-31T14:52:31.086Z,99531.80
2022-12-31T14:58:17.100Z,99533.80
2022-12-31T15:03:41.263Z,99538.20
2022-12-31T15:09:11.144Z,99543.40
2022-12-31T15:14:52.454Z,99558.00
2022-12-31T15:20:33.423Z,99544.00
2022-12-31T15:25:51.010Z,99540.00
2022-12-31T15:31:07.418Z,99543.80
2022-12-31T15:36:24.544Z,99547.60
2022-12-31T15:42:10.365Z,99548.00
2022-12-31T15:47:29.037Z,99567.40
2022-12-31T15:52:46.928Z,99573.80
2022-12-31T15:58:00.507Z,99575.40
2022-12-31T16:03:25.343Z,99579.00
2022-12-31T16:08:38.750Z,99574.60
2022-12-31T16:13:54.184Z,99577.00
2022-12-31T16:19:04.457Z,99588.20
2022-12-31T16:24:33.186Z,99595.00
2022-12-31T16:29:55.825Z,99593.20
2022-12-31T16:35:23.599Z,99580.20
2022-12-31T16:40:34.156Z,99569.00
2022-12-31T16:45:44.702Z,99587.80
2022-12-31T16:50:57.492Z,99586.60
2022-12-31T16:56:10.571Z,99580.00
2022-12-31T17:01:26.576Z,99597.80
2022-12-31T17:06:36.563Z,99609.80
2022-12-31T17:11:54.296Z,99615.60
2022-12-31T17:17:08.539Z,99620.20
2022-12-31T17:22:35.802Z,99619.60
2022-12-31T17:27:59.761Z,99627.60
2022-12-31T17:33:34.163Z,99628.20
2022-12-31T17:38:44.319Z,99628.00
2022-12-31T17:43:58.354Z,99630.60
2022-12-31T17:49:11.325Z,99629.20
2022-12-31T17:54:22.699Z,99648.20
2022-12-31T17:59:34.252Z,99643.40
2022-12-31T18:04:43.927Z,99652.60
2022-12-31T18:09:53.853Z,99650.20
2022-12-31T18:15:03.812Z,99658.40
2022-12-31T18:20:15.756Z,99663.60
2022-12-31T18:25:27.094Z,99665.60
2022-12-31T18:30:38.364Z,99680.80
2022-12-31T18:36:08.352Z,99672.00
2022-12-31T18:41:23.969Z,99648.00
2022-12-31T18:46:33.650Z,99631.20
2022-12-31T18:51:43.374Z,99647.40
2022-12-31T18:56:57.015Z,99641.60
2022-12-31T19:02:07.491Z,99645.00
2022-12-31T19:07:17.191Z,99649.60
2022-12-31T19:12:26.885Z,99662.80
2022-12-31T19:17:36.721Z,99653.00
2022-12-31T19:22:46.598Z,99662.60
2022-12-31T19:27:56.644Z,99669.60
2022-12-31T19:33:06.305Z,99670.80
2022-12-31T19:38:23.938Z,99674.40
2022-12-31T19:43:33.598Z,99663.20
2022-12-31T19:48:43.746Z,99666.00
2022-12-31T19:53:54.455Z,99666.60
2022-12-31T19:59:09.699Z,99662.60
2022-12-31T20:04:19.730Z,99662.60
2022-12-31T20:09:29.603Z,99646.60
2022-12-31T20:14:39.265Z,99667.00
2022-12-31T20:19:49.198Z,99661.60
2022-12-31T20:24:59.082Z,99667.80
2022-12-31T20:30:11.429Z,99672.40
2022-12-31T20:35:22.921Z,99654.60
2022-12-31T20:40:33.752Z,99651.80
2022-12-31T20:45:45.925Z,99658.40
2022-12-31T20:51:01.196Z,99649.80
2022-12-31T20:56:12.364Z,99640.60
2022-12-31T21:01:23.442Z,99647.20
2022-12-31T21:06:34.327Z,99633.20
2022-12-31T21:12:01.665Z,99642.20
2022-12-31T21:17:11.497Z,99633.60
2022-12-31T21:22:21.547Z,99623.00
2022-12-31T21:27:31.531Z,99625.80
2022-12-31T21:32:41.118Z,99631.80
2022-12-31T21:37:58.903Z,99640.00
2022-12-31T21:43:10.457Z,99644.80
2022-12-31T21:48:25.304Z,99652.00
2022-12-31T21:53:37.191Z,99645.20
2022-12-31T21:59:10.106Z,99626.00
2022-12-31T22:04:59.806Z,99621.20
2022-12-31T22:09:49.885Z,99640.80
2022-12-31T22:15:15.913Z,99637.00
2022-12-31T22:20:27.878Z,99650.80
2022-12-31T22:25:40.623Z,99651.00
2022-12-31T22:30:52.387Z,99655.40
2022-12-31T22:36:09.565Z,99665.80
2022-12-31T22:41:22.042Z,99665.60
2022-12-31T22:46:33.427Z,99650.20
2022-12-31T22:51:56.046Z,99649.80
2022-12-31T22:57:13.312Z,99637.40
2022-12-31T23:02:25.987Z,99632.60
2022-12-31T23:07:35.946Z,99643.40
2022-12-31T23:12:45.596Z,99651.60
2022-12-31T23:18:12.800Z,99663.00
2022-12-31T23:23:22.857Z,99667.20
2022-12-31T23:28:32.456Z,99670.00
2022-12-31T23:33:42.164Z,99658.20
2022-12-31T23:38:54.962Z,99656.40
2022-12-31T23:44:04.747Z,99643.80
2022-12-31T23:49:14.868Z,99645.40
2022-12-31T23:54:24.748Z,99642.00
2022-12-31T23:59:34.535Z,99662.40
